sensor_id;sensor_type;location;lat;lon;timestamp;pressure;altitude;pressure_sealevel;temperature;humidity
41246;BME280;53880;47.526;18.986;2023-04-08T00:00:37;99909.66;;;19.79;45.94
41246;BME280;53880;47.526;18.986;2023-04-08T00:03:06;99911.63;;;19.77;46.09
41246;BME280;53880;47.526;18.986;2023-04-08T00:05:24;99916.97;;;19.77;46.07
41246;BME280;53880;47.526;18.986;2023-04-08T00:07:39;99912.44;;;19.77;46.14
41246;BME280;53880;47.526;18.986;2023-04-08T00:09:57;99907.09;;;19.77;45.98
41246;BME280;53880;47.526;18.986;2023-04-08T00:12:14;99908.13;;;19.76;45.92
41246;BME280;53880;47.526;18.986;2023-04-08T00:14:39;99911.78;;;19.75;45.87
41246;BME280;53880;47.526;18.986;2023-04-08T00:16:57;99910.13;;;19.74;46.06
41246;BME280;53880;47.526;18.986;2023-04-08T00:19:16;99911.09;;;19.73;45.88
41246;BME280;53880;47.526;18.986;2023-04-08T00:21:32;99910.28;;;19.73;45.97
41246;BME280;53880;47.526;18.986;2023-04-08T00:23:47;99908.59;;;19.72;45.76
41246;BME280;53880;47.526;18.986;2023-04-08T00:26:07;99909.59;;;19.71;45.94
41246;BME280;53880;47.526;18.986;2023-04-08T00:28:24;99909.72;;;19.69;45.87
41246;BME280;53880;47.526;18.986;2023-04-08T00:30:43;99916.09;;;19.68;45.96
41246;BME280;53880;47.526;18.986;2023-04-08T00:32:58;99916.09;;;19.68;46.15
41246;BME280;53880;47.526;18.986;2023-04-08T00:35:16;99913.53;;;19.67;45.87
41246;BME280;53880;47.526;18.986;2023-04-08T00:37:33;99906.72;;;19.64;46.05
41246;BME280;53880;47.526;18.986;2023-04-08T00:39:53;99915.53;;;19.65;45.94
41246;BME280;53880;47.526;18.986;2023-04-08T00:42:08;99913.88;;;19.64;46.07
41246;BME280;53880;47.526;18.986;2023-04-08T00:44:23;99915.88;;;19.62;46.01
41246;BME280;53880;47.526;18.986;2023-04-08T00:46:43;99911.50;;;19.61;45.91
41246;BME280;53880;47.526;18.986;2023-04-08T00:49:00;99912.34;;;19.61;46.23
41246;BME280;53880;47.526;18.986;2023-04-08T00:51:16;99909.16;;;19.58;46.21
41246;BME280;53880;47.526;18.986;2023-04-08T00:53:34;99912.66;;;19.58;46.11
41246;BME280;53880;47.526;18.986;2023-04-08T00:55:56;99910.13;;;19.57;46.19
41246;BME280;53880;47.526;18.986;2023-04-08T00:58:12;99909.44;;;19.55;45.98
41246;BME280;53880;47.526;18.986;2023-04-08T01:00:30;99908.59;;;19.54;46.06
41246;BME280;53880;47.526;18.986;2023-04-08T01:03:31;99915.78;;;19.54;46.08
41246;BME280;53880;47.526;18.986;2023-04-08T01:05:54;99906.94;;;19.53;46.17
41246;BME280;53880;47.526;18.986;2023-04-08T01:08:11;99913.09;;;19.54;46.12
41246;BME280;53880;47.526;18.986;2023-04-08T01:10:33;99912.28;;;19.53;46.07
41246;BME280;53880;47.526;18.986;2023-04-08T01:12:57;99904.41;;;19.52;46.17
41246;BME280;53880;47.526;18.986;2023-04-08T01:15:16;99910.59;;;19.52;46.22
41246;BME280;53880;47.526;18.986;2023-04-08T01:17:39;99916.09;;;19.51;46.23
41246;BME280;53880;47.526;18.986;2023-04-08T01:20:00;99918.78;;;19.51;46.07
41246;BME280;53880;47.526;18.986;2023-04-08T01:25:07;99910.06;;;19.49;46.27
41246;BME280;53880;47.526;18.986;2023-04-08T01:27:32;99916.28;;;19.49;46.34
41246;BME280;53880;47.526;18.986;2023-04-08T01:29:51;99920.75;;;19.49;46.30
41246;BME280;53880;47.526;18.986;2023-04-08T01:32:09;99913.72;;;19.48;46.29
41246;BME280;53880;47.526;18.986;2023-04-08T01:34:25;99916.56;;;19.46;46.28
41246;BME280;53880;47.526;18.986;2023-04-08T01:36:45;99905.72;;;19.48;46.18
41246;BME280;53880;47.526;18.986;2023-04-08T01:39:07;99908.72;;;19.45;46.18
41246;BME280;53880;47.526;18.986;2023-04-08T01:41:28;99905.19;;;19.44;46.20
41246;BME280;53880;47.526;18.986;2023-04-08T01:43:47;99915.19;;;19.42;46.04
41246;BME280;53880;47.526;18.986;2023-04-08T01:46:05;99908.16;;;19.41;46.07
41246;BME280;53880;47.526;18.986;2023-04-08T01:48:28;99911.00;;;19.40;46.08
41246;BME280;53880;47.526;18.986;2023-04-08T01:50:45;99905.50;;;19.41;46.23
41246;BME280;53880;47.526;18.986;2023-04-08T01:53:09;99910.03;;;19.41;46.16
41246;BME280;53880;47.526;18.986;2023-04-08T01:55:26;99907.34;;;19.41;46.04
41246;BME280;53880;47.526;18.986;2023-04-08T01:57:48;99906.50;;;19.40;46.04
41246;BME280;53880;47.526;18.986;2023-04-08T02:00:07;99907.63;;;19.38;46.30
41246;BME280;53880;47.526;18.986;2023-04-08T02:02:41;99909.63;;;19.36;46.05
41246;BME280;53880;47.526;18.986;2023-04-08T02:04:57;99913.16;;;19.36;46.29
41246;BME280;53880;47.526;18.986;2023-04-08T02:07:18;99908.06;;;19.33;46.19
41246;BME280;53880;47.526;18.986;2023-04-08T02:09:36;99906.25;;;19.34;46.28
41246;BME280;53880;47.526;18.986;2023-04-08T02:11:58;99907.22;;;19.33;46.11
41246;BME280;53880;47.526;18.986;2023-04-08T02:14:17;99904.72;;;19.31;46.23
41246;BME280;53880;47.526;18.986;2023-04-08T02:17:00;99907.38;;;19.31;46.21
41246;BME280;53880;47.526;18.986;2023-04-08T02:19:40;99903.19;;;19.29;46.14
41246;BME280;53880;47.526;18.986;2023-04-08T02:22:17;99904.19;;;19.28;46.18
41246;BME280;53880;47.526;18.986;2023-04-08T02:24:35;99909.53;;;19.28;46.05
41246;BME280;53880;47.526;18.986;2023-04-08T02:26:55;99901.66;;;19.26;46.10
41246;BME280;53880;47.526;18.986;2023-04-08T02:29:18;99909.66;;;19.26;46.27
41246;BME280;53880;47.526;18.986;2023-04-08T02:31:40;99906.31;;;19.24;46.04
41246;BME280;53880;47.526;18.986;2023-04-08T02:34:03;99901.81;;;19.25;46.10
41246;BME280;53880;47.526;18.986;2023-04-08T02:36:25;99906.31;;;19.24;46.19
41246;BME280;53880;47.526;18.986;2023-04-08T02:38:52;99908.13;;;19.24;46.22
41246;BME280;53880;47.526;18.986;2023-04-08T02:41:10;99904.47;;;19.25;46.04
41246;BME280;53880;47.526;18.986;2023-04-08T02:43:28;99914.47;;;19.23;46.11
41246;BME280;53880;47.526;18.986;2023-04-08T02:45:46;99911.81;;;19.23;46.12
41246;BME280;53880;47.526;18.986;2023-04-08T02:48:05;99914.47;;;19.23;46.10
41246;BME280;53880;47.526;18.986;2023-04-08T02:50:21;99909.13;;;19.23;46.14
41246;BME280;53880;47.526;18.986;2023-04-08T02:52:40;99900.28;;;19.22;46.26
41246;BME280;53880;47.526;18.986;2023-04-08T02:55:00;99905.78;;;19.21;46.10
41246;BME280;53880;47.526;18.986;2023-04-08T02:57:17;99904.09;;;19.20;46.23
41246;BME280;53880;47.526;18.986;2023-04-08T02:59:35;99906.75;;;19.20;46.15
41246;BME280;53880;47.526;18.986;2023-04-08T03:01:56;99905.94;;;19.19;46.07
41246;BME280;53880;47.526;18.986;2023-04-08T03:04:15;99908.63;;;19.19;46.32
41246;BME280;53880;47.526;18.986;2023-04-08T03:06:35;99907.78;;;19.19;46.06
41246;BME280;53880;47.526;18.986;2023-04-08T03:08:52;99907.09;;;19.17;46.32
41246;BME280;53880;47.526;18.986;2023-04-08T03:11:08;99916.75;;;19.18;46.31
41246;BME280;53880;47.526;18.986;2023-04-08T03:13:25;99913.25;;;19.17;46.37
41246;BME280;53880;47.526;18.986;2023-04-08T03:15:43;99911.75;;;19.15;46.15
41246;BME280;53880;47.526;18.986;2023-04-08T03:17:58;99921.56;;;19.14;46.50
41246;BME280;53880;47.526;18.986;2023-04-08T03:20:14;99918.06;;;19.14;46.23
41246;BME280;53880;47.526;18.986;2023-04-08T03:22:34;99919.88;;;19.13;46.29
41246;BME280;53880;47.526;18.986;2023-04-08T03:24:55;99920.03;;;19.12;46.22
41246;BME280;53880;47.526;18.986;2023-04-08T03:27:12;99924.53;;;19.11;46.37
41246;BME280;53880;47.526;18.986;2023-04-08T03:29:30;99921.06;;;19.11;46.35
41246;BME280;53880;47.526;18.986;2023-04-08T03:31:45;99922.03;;;19.10;46.26
41246;BME280;53880;47.526;18.986;2023-04-08T03:34:02;99923.84;;;19.09;46.30
41246;BME280;53880;47.526;18.986;2023-04-08T03:36:20;99926.53;;;19.09;46.11
41246;BME280;53880;47.526;18.986;2023-04-08T03:38:35;99930.19;;;19.08;46.11
41246;BME280;53880;47.526;18.986;2023-04-08T03:40:57;99922.19;;;19.08;46.23
41246;BME280;53880;47.526;18.986;2023-04-08T03:43:17;99929.50;;;19.06;46.13
41246;BME280;53880;47.526;18.986;2023-04-08T03:45:35;99927.81;;;19.05;46.03
41246;BME280;53880;47.526;18.986;2023-04-08T03:47:53;99932.47;;;19.03;46.24
41246;BME280;53880;47.526;18.986;2023-04-08T03:50:08;99933.44;;;19.02;46.30
41246;BME280;53880;47.526;18.986;2023-04-08T03:52:26;99935.44;;;19.00;46.08
41246;BME280;53880;47.526;18.986;2023-04-08T03:54:45;99937.13;;;19.01;46.29
41246;BME280;53880;47.526;18.986;2023-04-08T03:57:05;99939.63;;;19.02;46.27
41246;BME280;53880;47.526;18.986;2023-04-08T03:59:25;99945.13;;;19.01;46.21
41246;BME280;53880;47.526;18.986;2023-04-08T04:01:43;99949.63;;;19.00;46.13
41246;BME280;53880;47.526;18.986;2023-04-08T04:03:58;99950.63;;;18.99;46.17
41246;BME280;53880;47.526;18.986;2023-04-08T04:06:15;99952.63;;;18.97;46.42
41246;BME280;53880;47.526;18.986;2023-04-08T04:08:30;99960.63;;;18.97;46.47
41246;BME280;53880;47.526;18.986;2023-04-08T04:10:48;99945.41;;;18.98;46.32
41246;BME280;53880;47.526;18.986;2023-04-08T04:13:08;99953.59;;;18.96;46.34
41246;BME280;53880;47.526;18.986;2023-04-08T04:15:30;99957.94;;;18.97;46.53
41246;BME280;53880;47.526;18.986;2023-04-08T04:17:53;99959.78;;;18.97;46.51
41246;BME280;53880;47.526;18.986;2023-04-08T04:20:13;99956.41;;;18.95;46.66
41246;BME280;53880;47.526;18.986;2023-04-08T04:22:31;99959.94;;;18.95;46.45
41246;BME280;53880;47.526;18.986;2023-04-08T04:24:48;99953.75;;;18.95;46.30
41246;BME280;53880;47.526;18.986;2023-04-08T04:27:08;99963.41;;;18.96;46.47
41246;BME280;53880;47.526;18.986;2023-04-08T04:29:29;99960.22;;;18.92;46.19
41246;BME280;53880;47.526;18.986;2023-04-08T04:31:44;99966.41;;;18.93;46.27
41246;BME280;53880;47.526;18.986;2023-04-08T04:34:02;99968.22;;;18.92;46.32
41246;BME280;53880;47.526;18.986;2023-04-08T04:36:19;99964.72;;;18.92;46.26
41246;BME280;53880;47.526;18.986;2023-04-08T04:38:35;99972.88;;;18.90;46.28
41246;BME280;53880;47.526;18.986;2023-04-08T04:40:55;99966.69;;;18.90;46.38
41246;BME280;53880;47.526;18.986;2023-04-08T04:43:13;99972.03;;;18.90;46.39
41246;BME280;53880;47.526;18.986;2023-04-08T04:45:30;99967.69;;;18.89;46.34
41246;BME280;53880;47.526;18.986;2023-04-08T04:47:48;99966.00;;;18.88;46.32
41246;BME280;53880;47.526;18.986;2023-04-08T04:50:03;99973.16;;;18.87;46.32
41246;BME280;53880;47.526;18.986;2023-04-08T04:52:18;99975.00;;;18.87;46.32
41246;BME280;53880;47.526;18.986;2023-04-08T04:54:33;99969.81;;;18.85;46.41
41246;BME280;53880;47.526;18.986;2023-04-08T04:56:53;99971.78;;;18.83;46.23
41246;BME280;53880;47.526;18.986;2023-04-08T04:59:13;99973.59;;;18.83;46.25
41246;BME280;53880;47.526;18.986;2023-04-08T05:01:31;99983.59;;;18.81;46.37
41246;BME280;53880;47.526;18.986;2023-04-08T05:03:46;99983.59;;;18.81;46.38
41246;BME280;53880;47.526;18.986;2023-04-08T05:06:03;99979.78;;;18.83;46.64
41246;BME280;53880;47.526;18.986;2023-04-08T05:08:23;99983.00;;;18.87;46.55
41246;BME280;53880;47.526;18.986;2023-04-08T05:10:45;99977.38;;;18.90;46.48
41246;BME280;53880;47.526;18.986;2023-04-08T05:13:08;99970.63;;;18.95;46.29
41246;BME280;53880;47.526;18.986;2023-04-08T05:15:26;99974.22;;;19.04;45.95
41246;BME280;53880;47.526;18.986;2023-04-08T05:17:47;99977.81;;;19.13;45.78
41246;BME280;53880;47.526;18.986;2023-04-08T05:20:05;99981.41;;;19.21;45.62
41246;BME280;53880;47.526;18.986;2023-04-08T05:22:22;99981.31;;;19.31;45.65
41246;BME280;53880;47.526;18.986;2023-04-08T05:24:40;99988.31;;;19.41;45.45
41246;BME280;53880;47.526;18.986;2023-04-08T05:26:57;99984.03;;;19.48;45.15
41246;BME280;53880;47.526;18.986;2023-04-08T05:29:13;99987.63;;;19.57;45.03
41246;BME280;53880;47.526;18.986;2023-04-08T05:31:30;99992.22;;;19.64;44.92
41246;BME280;53880;47.526;18.986;2023-04-08T05:33:51;99990.59;;;19.71;44.98
41246;BME280;53880;47.526;18.986;2023-04-08T05:36:13;99996.03;;;19.80;44.98
41246;BME280;53880;47.526;18.986;2023-04-08T05:38:33;99996.25;;;19.86;44.84
41246;BME280;53880;47.526;18.986;2023-04-08T05:40:51;99993.78;;;19.93;44.75
41246;BME280;53880;47.526;18.986;2023-04-08T05:43:09;100004.69;;;19.99;44.80
41246;BME280;53880;47.526;18.986;2023-04-08T05:45:29;100000.56;;;20.05;44.94
41246;BME280;53880;47.526;18.986;2023-04-08T05:47:47;99997.28;;;20.11;44.61
41246;BME280;53880;47.526;18.986;2023-04-08T05:50:05;100000.31;;;20.16;44.84
41246;BME280;53880;47.526;18.986;2023-04-08T05:52:25;100006.06;;;20.21;44.81
41246;BME280;53880;47.526;18.986;2023-04-08T05:54:43;100006.44;;;20.26;44.81
41246;BME280;53880;47.526;18.986;2023-04-08T05:57:02;100003.28;;;20.30;44.77
41246;BME280;53880;47.526;18.986;2023-04-08T05:59:17;100006.47;;;20.34;44.71
41246;BME280;53880;47.526;18.986;2023-04-08T06:01:32;100009.72;;;20.37;44.44
41246;BME280;53880;47.526;18.986;2023-04-08T06:03:54;100011.06;;;20.41;44.51
41246;BME280;53880;47.526;18.986;2023-04-08T06:06:17;100012.59;;;20.44;44.67
41246;BME280;53880;47.526;18.986;2023-04-08T06:08:32;100008.75;;;20.46;44.45
41246;BME280;53880;47.526;18.986;2023-04-08T06:10:48;100005.75;;;20.49;44.61
41246;BME280;53880;47.526;18.986;2023-04-08T06:13:11;100007.28;;;20.52;44.59
41246;BME280;53880;47.526;18.986;2023-04-08T06:15:26;100017.69;;;20.55;44.48
41246;BME280;53880;47.526;18.986;2023-04-08T06:17:46;100020.03;;;20.58;44.32
41246;BME280;53880;47.526;18.986;2023-04-08T06:20:09;100017.03;;;20.61;44.50
41246;BME280;53880;47.526;18.986;2023-04-08T06:22:29;100019.53;;;20.63;44.60
41246;BME280;53880;47.526;18.986;2023-04-08T06:24:49;100024.59;;;20.66;44.46
41246;BME280;53880;47.526;18.986;2023-04-08T06:27:06;100020.72;;;20.68;44.30
41246;BME280;53880;47.526;18.986;2023-04-08T06:29:22;100025.94;;;20.70;44.47
41246;BME280;53880;47.526;18.986;2023-04-08T06:31:39;100031.97;;;20.72;44.31
41246;BME280;53880;47.526;18.986;2023-04-08T06:33:55;100031.66;;;20.75;44.36
41246;BME280;53880;47.526;18.986;2023-04-08T06:36:14;100026.97;;;20.77;44.21
41246;BME280;53880;47.526;18.986;2023-04-08T06:38:32;100030.34;;;20.79;44.49
41246;BME280;53880;47.526;18.986;2023-04-08T06:40:50;100028.34;;;20.81;44.49
41246;BME280;53880;47.526;18.986;2023-04-08T06:43:11;100028.88;;;20.84;44.20
41246;BME280;53880;47.526;18.986;2023-04-08T06:45:28;100026.00;;;20.86;44.19
41246;BME280;53880;47.526;18.986;2023-04-08T06:47:45;100028.56;;;20.87;44.18
41246;BME280;53880;47.526;18.986;2023-04-08T06:50:01;100038.75;;;20.92;44.04
41246;BME280;53880;47.526;18.986;2023-04-08T06:52:18;100032.41;;;20.93;44.24
41246;BME280;53880;47.526;18.986;2023-04-08T06:54:40;100035.94;;;20.93;44.13
41246;BME280;53880;47.526;18.986;2023-04-08T06:56:56;100039.13;;;20.97;43.88
41246;BME280;53880;47.526;18.986;2023-04-08T06:59:11;100037.13;;;20.99;44.01
41246;BME280;53880;47.526;18.986;2023-04-08T07:01:28;100049.53;;;21.00;44.15
41246;BME280;53880;47.526;18.986;2023-04-08T07:03:46;100046.53;;;21.03;44.16
41246;BME280;53880;47.526;18.986;2023-04-08T07:06:03;100042.88;;;21.04;44.12
41246;BME280;53880;47.526;18.986;2023-04-08T07:08:23;100047.91;;;21.07;43.82
41246;BME280;53880;47.526;18.986;2023-04-08T07:10:38;100042.53;;;21.07;44.08
41246;BME280;53880;47.526;18.986;2023-04-08T07:12:56;100044.06;;;21.09;43.96
41246;BME280;53880;47.526;18.986;2023-04-08T07:15:13;100042.91;;;21.12;43.88
41246;BME280;53880;47.526;18.986;2023-04-08T07:17:33;100046.25;;;21.14;43.86
41246;BME280;53880;47.526;18.986;2023-04-08T07:19:57;100047.09;;;21.14;43.83
41246;BME280;53880;47.526;18.986;2023-04-08T07:22:15;100054.97;;;21.16;44.12
41246;BME280;53880;47.526;18.986;2023-04-08T07:24:37;100058.50;;;21.16;44.15
41246;BME280;53880;47.526;18.986;2023-04-08T07:26:56;100060.50;;;21.14;44.24
41246;BME280;53880;47.526;18.986;2023-04-08T07:29:12;100063.19;;;21.14;44.34
41246;BME280;53880;47.526;18.986;2023-04-08T07:31:29;100065.00;;;21.14;44.56
41246;BME280;53880;47.526;18.986;2023-04-08T07:33:47;100072.38;;;21.12;44.52
41246;BME280;53880;47.526;18.986;2023-04-08T07:36:06;100070.72;;;21.11;44.28
41246;BME280;53880;47.526;18.986;2023-04-08T07:38:23;100067.34;;;21.09;44.30
41246;BME280;53880;47.526;18.986;2023-04-08T07:40:40;100072.00;;;21.07;44.42
41246;BME280;53880;47.526;18.986;2023-04-08T07:42:57;100076.00;;;21.03;44.51
41246;BME280;53880;47.526;18.986;2023-04-08T07:45:12;100077.97;;;21.01;44.63
41246;BME280;53880;47.526;18.986;2023-04-08T07:47:32;100086.34;;;20.98;44.56
41246;BME280;53880;47.526;18.986;2023-04-08T07:49:50;100083.00;;;20.96;44.59
41246;BME280;53880;47.526;18.986;2023-04-08T07:52:05;100094.00;;;20.93;44.73
41246;BME280;53880;47.526;18.986;2023-04-08T07:54:20;100096.00;;;20.91;44.85
41246;BME280;53880;47.526;18.986;2023-04-08T07:56:38;100096.31;;;20.88;44.61
41246;BME280;53880;47.526;18.986;2023-04-08T07:58:56;100094.97;;;20.84;44.85
41246;BME280;53880;47.526;18.986;2023-04-08T08:01:19;100099.63;;;20.82;44.79
41246;BME280;53880;47.526;18.986;2023-04-08T08:03:38;100102.47;;;20.80;44.56
41246;BME280;53880;47.526;18.986;2023-04-08T08:05:53;100096.97;;;20.82;44.67
41246;BME280;53880;47.526;18.986;2023-04-08T08:08:10;100098.66;;;20.83;44.64
41246;BME280;53880;47.526;18.986;2023-04-08T08:10:26;100101.69;;;20.88;44.38
41246;BME280;53880;47.526;18.986;2023-04-08T08:12:46;100103.88;;;20.92;44.14
41246;BME280;53880;47.526;18.986;2023-04-08T08:15:02;100102.41;;;20.98;44.15
41246;BME280;53880;47.526;18.986;2023-04-08T08:17:17;100103.78;;;21.02;43.87
41246;BME280;53880;47.526;18.986;2023-04-08T08:19:39;100097.81;;;21.08;44.03
41246;BME280;53880;47.526;18.986;2023-04-08T08:21:57;100108.91;;;21.13;43.78
41246;BME280;53880;47.526;18.986;2023-04-08T08:24:12;100101.38;;;21.16;43.76
41246;BME280;53880;47.526;18.986;2023-04-08T08:26:33;100107.22;;;21.20;43.75
41246;BME280;53880;47.526;18.986;2023-04-08T08:28:54;100111.13;;;21.25;43.66
41246;BME280;53880;47.526;18.986;2023-04-08T08:31:16;100115.16;;;21.30;43.82
41246;BME280;53880;47.526;18.986;2023-04-08T08:33:36;100116.00;;;21.30;43.71
41246;BME280;53880;47.526;18.986;2023-04-08T08:35:57;100118.34;;;21.33;43.77
41246;BME280;53880;47.526;18.986;2023-04-08T08:38:17;100112.16;;;21.33;43.80
41246;BME280;53880;47.526;18.986;2023-04-08T08:40:32;100114.00;;;21.32;43.95
41246;BME280;53880;47.526;18.986;2023-04-08T08:42:51;100117.66;;;21.31;43.95
41246;BME280;53880;47.526;18.986;2023-04-08T08:45:13;100119.53;;;21.31;43.91
41246;BME280;53880;47.526;18.986;2023-04-08T08:47:32;100121.50;;;21.28;44.20
41246;BME280;53880;47.526;18.986;2023-04-08T08:49:47;100120.00;;;21.26;44.21
41246;BME280;53880;47.526;18.986;2023-04-08T08:52:03;100123.00;;;21.23;44.34
41246;BME280;53880;47.526;18.986;2023-04-08T08:54:18;100124.84;;;21.22;43.95
41246;BME280;53880;47.526;18.986;2023-04-08T08:56:37;100125.16;;;21.19;44.28
41246;BME280;53880;47.526;18.986;2023-04-08T08:58:52;100130.00;;;21.16;44.41
41246;BME280;53880;47.526;18.986;2023-04-08T09:01:39;100132.00;;;21.14;44.29
41246;BME280;53880;47.526;18.986;2023-04-08T09:04:14;100130.63;;;21.10;44.32
41246;BME280;53880;47.526;18.986;2023-04-08T09:06:30;100140.66;;;21.08;44.31
41246;BME280;53880;47.526;18.986;2023-04-08T09:08:47;100142.84;;;21.04;44.36
41246;BME280;53880;47.526;18.986;2023-04-08T09:13:37;100142.44;;;20.99;44.20
41246;BME280;53880;47.526;18.986;2023-04-08T09:16:01;100136.41;;;20.97;44.16
41246;BME280;53880;47.526;18.986;2023-04-08T09:18:24;100138.56;;;20.94;44.12
41246;BME280;53880;47.526;18.986;2023-04-08T09:20:51;100150.25;;;20.93;44.28
41246;BME280;53880;47.526;18.986;2023-04-08T09:23:09;100142.38;;;20.91;44.45
41246;BME280;53880;47.526;18.986;2023-04-08T09:25:32;100142.38;;;20.91;44.20
41246;BME280;53880;47.526;18.986;2023-04-08T09:27:54;100148.25;;;20.95;44.34
41246;BME280;53880;47.526;18.986;2023-04-08T09:30:15;100147.97;;;20.98;44.28
41246;BME280;53880;47.526;18.986;2023-04-08T09:32:49;100158.06;;;21.04;44.28
41246;BME280;53880;47.526;18.986;2023-04-08T09:35:05;100158.44;;;21.09;43.93
41246;BME280;53880;47.526;18.986;2023-04-08T09:37:20;100165.00;;;21.14;43.82
41246;BME280;53880;47.526;18.986;2023-04-08T09:39:36;100160.13;;;21.18;43.89
41246;BME280;53880;47.526;18.986;2023-04-08T09:41:59;100166.53;;;21.25;43.61
41246;BME280;53880;47.526;18.986;2023-04-08T09:44:25;100162.53;;;21.29;43.46
41246;BME280;53880;47.526;18.986;2023-04-08T09:51:21;100163.41;;;21.38;43.52
41246;BME280;53880;47.526;18.986;2023-04-08T09:53:47;100168.66;;;21.39;43.43
41246;BME280;53880;47.526;18.986;2023-04-08T09:56:13;100166.66;;;21.41;43.40
41246;BME280;53880;47.526;18.986;2023-04-08T09:58:42;100170.31;;;21.40;43.74
41246;BME280;53880;47.526;18.986;2023-04-08T10:01:06;100169.47;;;21.40;43.87
41246;BME280;53880;47.526;18.986;2023-04-08T10:03:34;100170.63;;;21.37;43.70
41246;BME280;53880;47.526;18.986;2023-04-08T10:05:53;100166.28;;;21.36;43.77
41246;BME280;53880;47.526;18.986;2023-04-08T10:08:13;100170.97;;;21.34;43.68
41246;BME280;53880;47.526;18.986;2023-04-08T10:10:37;100175.63;;;21.32;43.87
41246;BME280;53880;47.526;18.986;2023-04-08T10:12:56;100172.28;;;21.30;44.04
41246;BME280;53880;47.526;18.986;2023-04-08T10:17:45;100173.75;;;21.24;44.24
41246;BME280;53880;47.526;18.986;2023-04-08T10:20:02;100171.41;;;21.21;44.01
41246;BME280;53880;47.526;18.986;2023-04-08T10:27:38;100169.66;;;21.12;44.23
41246;BME280;53880;47.526;18.986;2023-04-08T10:29:59;100170.81;;;21.10;43.94
41246;BME280;53880;47.526;18.986;2023-04-08T10:32:29;100177.50;;;21.06;44.19
41246;BME280;53880;47.526;18.986;2023-04-08T10:34:54;100171.47;;;21.04;44.22
41246;BME280;53880;47.526;18.986;2023-04-08T10:37:12;100161.00;;;21.01;43.63
41246;BME280;53880;47.526;18.986;2023-04-08T10:39:32;100164.72;;;21.00;43.55
41246;BME280;53880;47.526;18.986;2023-04-08T10:41:50;100164.16;;;20.96;43.13
41246;BME280;53880;47.526;18.986;2023-04-08T10:44:23;100168.84;;;20.94;43.40
41246;BME280;53880;47.526;18.986;2023-04-08T10:46:43;100171.69;;;20.93;43.95
41246;BME280;53880;47.526;18.986;2023-04-08T10:49:03;100171.69;;;20.93;44.15
41246;BME280;53880;47.526;18.986;2023-04-08T10:51:29;100164.31;;;20.95;44.14
41246;BME280;53880;47.526;18.986;2023-04-08T10:53:48;100171.03;;;20.99;44.28
41246;BME280;53880;47.526;18.986;2023-04-08T10:56:04;100173.28;;;21.03;43.94
41246;BME280;53880;47.526;18.986;2023-04-08T10:58:22;100173.50;;;21.10;43.86
41246;BME280;53880;47.526;18.986;2023-04-08T11:00:39;100173.88;;;21.15;43.53
41246;BME280;53880;47.526;18.986;2023-04-08T11:02:56;100175.91;;;21.21;43.68
41246;BME280;53880;47.526;18.986;2023-04-08T11:05:14;100174.28;;;21.28;43.36
41246;BME280;53880;47.526;18.986;2023-04-08T11:07:39;100169.25;;;21.33;43.48
41246;BME280;53880;47.526;18.986;2023-04-08T11:10:02;100170.47;;;21.39;43.17
41246;BME280;53880;47.526;18.986;2023-04-08T11:12:23;100167.47;;;21.42;43.35
41246;BME280;53880;47.526;18.986;2023-04-08T11:14:41;100170.81;;;21.44;43.13
41246;BME280;53880;47.526;18.986;2023-04-08T11:16:59;100170.69;;;21.45;43.21
41246;BME280;53880;47.526;18.986;2023-04-08T11:19:22;100178.53;;;21.47;43.14
41246;BME280;53880;47.526;18.986;2023-04-08T11:21:41;100169.84;;;21.45;43.42
41246;BME280;53880;47.526;18.986;2023-04-08T11:23:59;100171.66;;;21.44;43.40
41246;BME280;53880;47.526;18.986;2023-04-08T11:26:19;100177.19;;;21.43;43.67
41246;BME280;53880;47.526;18.986;2023-04-08T11:28:36;100174.69;;;21.41;43.75
41246;BME280;53880;47.526;18.986;2023-04-08T11:30:59;100173.16;;;21.39;43.73
41246;BME280;53880;47.526;18.986;2023-04-08T11:33:20;100179.50;;;21.38;43.73
41246;BME280;53880;47.526;18.986;2023-04-08T11:35:42;100171.81;;;21.35;43.85
41246;BME280;53880;47.526;18.986;2023-04-08T11:38:04;100179.16;;;21.33;43.88
41246;BME280;53880;47.526;18.986;2023-04-08T11:40:23;100179.31;;;21.31;43.89
41246;BME280;53880;47.526;18.986;2023-04-08T11:42:40;100177.78;;;21.28;43.84
41246;BME280;53880;47.526;18.986;2023-04-08T11:44:58;100181.63;;;21.26;43.79
41246;BME280;53880;47.526;18.986;2023-04-08T11:47:13;100178.41;;;21.22;43.74
41246;BME280;53880;47.526;18.986;2023-04-08T11:49:43;100171.03;;;21.16;43.77
41246;BME280;53880;47.526;18.986;2023-04-08T11:52:01;100177.22;;;21.17;43.96
41246;BME280;53880;47.526;18.986;2023-04-08T11:54:30;100174.00;;;21.13;43.82
41246;BME280;53880;47.526;18.986;2023-04-08T11:56:51;100172.50;;;21.11;43.78
41246;BME280;53880;47.526;18.986;2023-04-08T11:59:09;100178.19;;;21.08;43.83
41246;BME280;53880;47.526;18.986;2023-04-08T12:01:25;100168.59;;;21.05;43.83
41246;BME280;53880;47.526;18.986;2023-04-08T12:03:55;100175.97;;;21.03;43.93
41246;BME280;53880;47.526;18.986;2023-04-08T12:06:10;100169.03;;;21.01;43.04
41246;BME280;53880;47.526;18.986;2023-04-08T12:08:26;100174.56;;;20.99;43.28
41246;BME280;53880;47.526;18.986;2023-04-08T12:10:44;100168.69;;;20.96;43.46
41246;BME280;53880;47.526;18.986;2023-04-08T12:12:59;100167.00;;;20.95;43.77
41246;BME280;53880;47.526;18.986;2023-04-08T12:15:17;100169.69;;;20.95;44.06
41246;BME280;53880;47.526;18.986;2023-04-08T12:17:37;100173.03;;;20.97;44.21
41246;BME280;53880;47.526;18.986;2023-04-08T12:19:57;100178.94;;;21.00;43.98
41246;BME280;53880;47.526;18.986;2023-04-08T12:22:15;100171.47;;;21.04;43.97